Time;durP1;ratioP1;P1;durP2;ratioP2;P2;SDS_P1;SDS_P2;PMS_P1;PMS_P2;Temp;Humidity;BMP_temperature;BMP_pressure;BME280_temperature;BME280_humidity;BME280_pressure;Samples;Min_cycle;Max_cycle;Signal;HPM_P1;HPM_P2
2022/01/29 00:01:46;;;;;;;5.47;1.90;;;28.50;97.00;;;;;;5073443;28;20473;-83
2022/01/29 00:04:16;;;;;;;5.88;1.80;;;28.70;96.80;;;;;;5073201;28;20447;-84
2022/01/29 00:10:06;;;;;;;5.57;1.80;;;29.20;96.00;;;;;;5073725;28;20439;-85
2022/01/29 00:12:33;;;;;;;5.37;2.03;;;29.10;96.30;;;;;;5073014;28;20381;-84
2022/01/29 00:15:00;;;;;;;4.97;1.75;;;29.30;95.50;;;;;;5072934;28;20371;-80
2022/01/29 00:20:49;;;;;;;5.28;1.70;;;30.50;92.50;;;;;;5073255;28;20459;-84
2022/01/29 00:23:16;;;;;;;4.55;1.67;;;31.00;90.20;;;;;;5073974;28;20462;-81
2022/01/29 00:25:43;;;;;;;4.93;1.80;;;31.30;87.30;;;;;;5073287;28;20500;-83
2022/01/29 00:28:09;;;;;;;5.90;1.60;;;31.40;87.00;;;;;;5072904;28;20389;-80
2022/01/29 00:30:40;;;;;;;7.28;1.83;;;31.00;85.40;;;;;;5073232;28;20382;-83
2022/01/29 00:33:07;;;;;;;6.47;2.00;;;30.80;86.60;;;;;;5072854;28;20373;-83
2022/01/29 00:35:34;;;;;;;6.53;1.88;;;30.80;86.70;;;;;;5073037;28;20469;-80
2022/01/29 00:38:01;;;;;;;5.50;2.08;;;31.20;85.40;;;;;;5073033;28;20870;-85
2022/01/29 00:40:28;;;;;;;7.40;2.00;;;31.50;84.10;;;;;;5073336;28;20389;-80
2022/01/29 00:42:55;;;;;;;6.78;1.95;;;31.80;81.70;;;;;;5073456;28;20772;-83
2022/01/29 00:45:22;;;;;;;5.63;1.80;;;32.10;80.40;;;;;;5074023;28;20390;-86
2022/01/29 00:47:49;;;;;;;6.90;1.67;;;32.00;77.80;;;;;;5075498;28;20378;-83
2022/01/29 00:50:16;;;;;;;3.90;1.52;;;31.60;81.00;;;;;;5073541;28;20826;-86
2022/01/29 00:52:43;;;;;;;5.70;1.73;;;31.70;82.90;;;;;;5055141;28;20409;-84
2022/01/29 00:55:11;;;;;;;7.50;1.60;;;32.00;78.60;;;;;;5072731;28;20846;-84
2022/01/29 00:57:40;;;;;;;4.43;1.70;;;31.80;79.30;;;;;;5072534;28;20382;-82
2022/01/29 04:03:43;;;;;;;5.07;1.30;;;43.20;41.80;;;;;;5109123;27;20860;-83
2022/01/29 04:06:10;;;;;;;3.95;1.40;;;42.40;44.40;;;;;;5107593;28;20383;-81
2022/01/29 04:08:41;;;;;;;8.27;1.50;;;41.90;44.40;;;;;;5108792;28;20874;-80
2022/01/29 04:11:13;;;;;;;3.40;1.30;;;42.10;43.60;;;;;;5109246;28;20458;-81
2022/01/29 04:13:44;;;;;;;3.40;1.42;;;42.40;43.60;;;;;;5108537;28;20390;-81
2022/01/29 04:16:12;;;;;;;3.78;1.50;;;42.30;43.60;;;;;;5104361;28;20468;-82
2022/01/29 04:18:39;;;;;;;3.92;1.40;;;42.30;43.80;;;;;;5107808;28;20387;-82
2022/01/29 04:21:07;;;;;;;5.55;1.40;;;41.90;44.40;;;;;;5106775;28;20384;-81
2022/01/29 04:23:34;;;;;;;3.73;1.40;;;41.20;45.50;;;;;;5108141;28;20400;-84
2022/01/29 04:26:05;;;;;;;3.75;1.35;;;40.70;46.60;;;;;;5106847;28;20432;-86
2022/01/29 04:28:43;;;;;;;4.15;1.42;;;40.50;46.70;;;;;;5108034;28;20486;-83
2022/01/29 04:31:16;;;;;;;4.95;1.48;;;39.90;47.20;;;;;;5107900;28;21018;-83
2022/01/29 04:33:43;;;;;;;3.78;1.35;;;40.10;47.60;;;;;;5107457;28;20371;-84
2022/01/29 04:36:10;;;;;;;4.32;1.50;;;39.90;47.90;;;;;;5107428;28;20443;-85
2022/01/29 04:38:37;;;;;;;3.83;1.43;;;39.90;48.30;;;;;;5107448;28;20843;-79
2022/01/29 04:41:05;;;;;;;4.50;1.40;;;40.00;48.30;;;;;;5107073;28;20887;-82
2022/01/29 04:43:36;;;;;;;5.13;1.48;;;40.00;48.30;;;;;;5106475;28;20403;-81
2022/01/29 04:46:03;;;;;;;7.10;1.58;;;39.70;49.10;;;;;;5106440;28;20453;-81
2022/01/29 04:48:31;;;;;;;3.35;1.40;;;38.80;50.00;;;;;;5106806;28;20419;-83
2022/01/29 04:50:58;;;;;;;4.35;1.60;;;38.00;50.60;;;;;;5106795;28;20399;-81
2022/01/29 04:53:24;;;;;;;4.88;1.70;;;37.10;52.10;;;;;;5106933;28;20388;-81
2022/01/29 04:55:51;;;;;;;4.13;1.63;;;36.40;54.00;;;;;;5106721;28;20483;-81
2022/01/29 04:58:18;;;;;;;5.20;1.40;;;35.60;55.10;;;;;;5106858;28;20733;-83
2022/01/29 05:00:45;;;;;;;4.67;1.60;;;35.10;57.10;;;;;;5106015;28;20382;-82
2022/01/29 05:03:14;;;;;;;5.43;1.70;;;34.60;57.70;;;;;;5102935;28;20898;-81
2022/01/29 05:05:42;;;;;;;4.43;1.60;;;34.40;58.40;;;;;;5101194;28;20745;-82
2022/01/29 05:08:12;;;;;;;6.23;1.67;;;34.20;58.90;;;;;;5090536;28;20566;-85
2022/01/29 05:10:39;;;;;;;3.23;1.37;;;34.10;59.00;;;;;;5087310;28;20776;-82
2022/01/29 05:13:12;;;;;;;5.13;2.60;;;34.00;59.70;;;;;;5093962;28;20384;-80
2022/01/29 05:29:09;;;;;;;5.80;1.60;;;32.90;63.20;;;;;;5090309;28;20906;-82
2022/01/29 05:31:37;;;;;;;5.63;1.55;;;33.20;62.90;;;;;;5079275;28;20386;-83
2022/01/29 05:34:04;;;;;;;4.60;1.30;;;33.30;63.10;;;;;;5072861;28;20832;-83
2022/01/29 05:36:32;;;;;;;5.13;1.60;;;33.40;62.70;;;;;;5077475;28;21007;-81
2022/01/29 05:38:59;;;;;;;3.80;1.80;;;33.50;62.30;;;;;;5075175;28;20390;-81
2022/01/29 05:41:28;;;;;;;4.60;1.45;;;33.60;62.50;;;;;;5074407;28;20380;-82
2022/01/29 05:43:55;;;;;;;5.50;1.40;;;34.20;61.80;;;;;;5091442;28;20862;-82
2022/01/29 05:46:23;;;;;;;4.38;1.45;;;35.20;59.70;;;;;;5082352;28;20453;-81
2022/01/29 05:48:50;;;;;;;5.95;1.60;;;36.30;57.70;;;;;;5075687;28;20397;-82
2022/01/29 05:51:16;;;;;;;5.05;1.50;;;37.00;56.90;;;;;;5086180;28;20372;-83
2022/01/29 05:53:43;;;;;;;4.85;1.30;;;37.20;55.20;;;;;;5084416;28;20401;-83
2022/01/29 05:56:10;;;;;;;5.35;1.70;;;36.90;55.40;;;;;;5083356;28;20401;-81
2022/01/29 05:58:37;;;;;;;5.67;1.83;;;36.10;55.70;;;;;;5082164;28;20491;-81
2022/01/29 06:01:05;;;;;;;4.00;1.52;;;35.50;57.20;;;;;;5080589;28;20417;-80
2022/01/29 06:03:32;;;;;;;5.40;1.63;;;35.10;58.50;;;;;;5090940;28;20901;-81
2022/01/29 06:05:59;;;;;;;4.70;1.60;;;34.80;59.10;;;;;;5090560;28;20400;-81
2022/01/29 06:08:26;;;;;;;5.35;1.67;;;34.70;59.50;;;;;;5091948;28;20388;-83
2022/01/29 06:10:53;;;;;;;4.28;1.60;;;34.80;59.40;;;;;;5092480;28;20392;-82
2022/01/29 06:13:20;;;;;;;5.32;1.70;;;34.70;59.20;;;;;;5072699;28;20419;-82
2022/01/29 06:15:49;;;;;;;4.63;1.50;;;34.70;59.40;;;;;;5092105;28;20438;-83
2022/01/29 06:18:19;;;;;;;5.70;1.65;;;34.80;58.60;;;;;;5091117;28;20445;-81
2022/01/29 06:20:49;;;;;;;5.43;1.70;;;35.00;58.00;;;;;;5092194;28;20736;-82
2022/01/29 06:23:20;;;;;;;4.35;1.50;;;34.80;57.90;;;;;;5092650;28;20392;-81
2022/01/29 06:25:48;;;;;;;5.57;1.70;;;34.50;58.70;;;;;;5091696;28;20384;-83
2022/01/29 06:28:14;;;;;;;5.95;1.70;;;34.10;59.20;;;;;;5095333;28;20386;-81
2022/01/29 06:30:41;;;;;;;6.47;2.47;;;33.60;60.10;;;;;;5098163;28;20375;-83
2022/01/29 06:33:10;;;;;;;6.63;2.15;;;33.10;61.50;;;;;;5094385;28;20379;-86
2022/01/29 06:35:39;;;;;;;5.60;1.80;;;32.60;62.80;;;;;;5092786;28;20384;-87
2022/01/29 06:38:08;;;;;;;7.75;2.50;;;32.40;63.30;;;;;;5093600;28;20401;-84
2022/01/29 06:40:36;;;;;;;7.18;1.95;;;32.10;64.60;;;;;;5091599;28;20415;-84
2022/01/29 06:43:04;;;;;;;8.23;1.93;;;31.90;65.60;;;;;;5091505;28;20863;-83
2022/01/29 06:45:36;;;;;;;8.38;2.40;;;31.50;67.40;;;;;;5091882;28;20743;-81
2022/01/29 06:48:04;;;;;;;8.07;2.10;;;31.20;68.90;;;;;;5092437;28;20387;-83
2022/01/29 06:50:31;;;;;;;10.07;2.38;;;31.00;69.20;;;;;;5091956;28;20384;-83
2022/01/29 06:52:58;;;;;;;7.25;2.03;;;30.80;70.80;;;;;;5092150;28;20753;-83
2022/01/29 06:55:25;;;;;;;9.47;2.30;;;30.60;71.00;;;;;;5091461;28;20773;-83
2022/01/29 06:57:52;;;;;;;9.57;2.07;;;30.50;71.40;;;;;;5090532;28;20403;-84
2022/01/29 07:00:19;;;;;;;9.63;3.17;;;30.30;72.30;;;;;;5091346;28;20430;-84
2022/01/29 07:02:46;;;;;;;7.97;2.10;;;30.10;73.90;;;;;;5086552;28;20406;-82
2022/01/29 07:05:13;;;;;;;7.40;2.03;;;30.00;73.80;;;;;;5073012;28;20882;-83
2022/01/29 07:07:41;;;;;;;9.77;2.30;;;29.80;74.60;;;;;;5074681;28;20403;-83
2022/01/29 07:10:09;;;;;;;9.02;2.08;;;29.70;75.40;;;;;;5084220;28;20387;-81
2022/01/29 07:12:40;;;;;;;8.23;2.40;;;29.60;76.60;;;;;;5077954;28;20388;-83
2022/01/29 07:15:08;;;;;;;8.40;2.28;;;29.50;77.30;;;;;;5071857;28;20377;-84
2022/01/29 07:17:36;;;;;;;10.10;2.60;;;29.20;78.50;;;;;;5071610;28;20393;-80
2022/01/29 07:20:04;;;;;;;8.07;2.42;;;29.20;79.30;;;;;;5072140;28;20915;-82
2022/01/29 07:22:31;;;;;;;7.53;2.20;;;29.20;79.80;;;;;;5070025;28;20415;-83
2022/01/29 07:24:58;;;;;;;9.25;2.30;;;29.00;80.60;;;;;;5071350;28;20409;-82
2022/01/29 07:27:26;;;;;;;12.45;2.75;;;29.00;82.00;;;;;;5079467;28;20422;-82
2022/01/29 07:29:53;;;;;;;9.32;2.50;;;28.80;83.10;;;;;;5071507;28;20381;-81
2022/01/29 07:32:20;;;;;;;9.52;2.53;;;28.70;84.40;;;;;;5072569;28;20923;-83
2022/01/29 07:34:47;;;;;;;10.48;2.90;;;28.70;85.70;;;;;;5071448;28;20501;-84
2022/01/29 07:37:13;;;;;;;11.20;2.83;;;28.60;87.30;;;;;;5084584;28;20514;-81
2022/01/29 07:39:40;;;;;;;8.73;2.50;;;28.50;88.40;;;;;;5072694;28;20442;-83
2022/01/29 07:42:08;;;;;;;9.88;2.70;;;28.40;89.10;;;;;;5084880;28;20404;-84
2022/01/29 07:44:35;;;;;;;11.60;2.55;;;28.40;90.00;;;;;;5089262;28;20455;-85
2022/01/29 07:47:02;;;;;;;11.63;3.20;;;28.20;91.30;;;;;;5077837;28;20394;-84
2022/01/29 07:49:29;;;;;;;11.85;2.60;;;28.10;92.70;;;;;;5070976;28;20473;-82
2022/01/29 07:51:56;;;;;;;11.93;2.90;;;28.10;93.00;;;;;;5054109;28;20386;-82
2022/01/29 07:54:24;;;;;;;12.65;2.88;;;27.90;93.40;;;;;;5075165;28;20393;-84
2022/01/29 07:56:50;;;;;;;10.30;2.65;;;27.90;94.20;;;;;;5087693;28;20393;-82
2022/01/29 07:59:17;;;;;;;12.07;3.25;;;27.80;95.10;;;;;;5091423;28;20369;-82
2022/01/29 08:01:44;;;;;;;15.32;3.10;;;27.80;95.50;;;;;;5086784;28;20740;-83
2022/01/29 08:04:11;;;;;;;12.20;3.00;;;27.80;96.10;;;;;;5090662;28;20461;-82
2022/01/29 08:06:38;;;;;;;15.48;3.33;;;27.70;96.50;;;;;;5090989;28;20927;-81
2022/01/29 08:09:08;;;;;;;12.77;2.97;;;27.70;96.80;;;;;;5089076;28;20392;-82
2022/01/29 08:11:35;;;;;;;18.30;3.30;;;27.60;97.40;;;;;;5090348;28;20376;-82
2022/01/29 08:14:03;;;;;;;12.60;3.33;;;27.50;97.80;;;;;;5091061;28;20392;-82
2022/01/29 08:16:30;;;;;;;11.98;3.50;;;27.40;98.60;;;;;;5090506;28;20380;-82
2022/01/29 08:18:57;;;;;;;14.80;3.58;;;27.40;98.90;;;;;;5090784;28;20410;-82
2022/01/29 08:21:25;;;;;;;14.60;3.33;;;27.40;99.00;;;;;;5089389;28;20764;-82
2022/01/29 08:23:52;;;;;;;15.13;3.17;;;27.40;99.50;;;;;;5090706;28;20475;-84
2022/01/29 08:26:19;;;;;;;10.88;3.10;;;27.30;99.80;;;;;;5090918;28;20380;-83
2022/01/29 08:28:46;;;;;;;12.50;3.30;;;27.30;99.60;;;;;;5091037;28;20736;-83
2022/01/29 08:31:12;;;;;;;12.57;3.20;;;27.20;99.80;;;;;;5091396;28;20379;-83
2022/01/29 08:33:40;;;;;;;13.23;3.35;;;27.10;99.90;;;;;;5090205;28;20868;-82
2022/01/29 08:36:08;;;;;;;13.57;3.47;;;27.20;99.90;;;;;;5090201;28;20384;-82
2022/01/29 08:38:35;;;;;;;15.32;3.47;;;27.00;99.90;;;;;;5101127;28;20440;-83
2022/01/29 08:41:03;;;;;;;13.95;3.42;;;27.00;99.90;;;;;;5091779;28;20379;-82
2022/01/29 08:43:32;;;;;;;15.00;3.55;;;27.00;99.90;;;;;;5090889;28;20408;-82
2022/01/29 08:45:59;;;;;;;13.77;3.50;;;27.00;99.90;;;;;;5109887;28;20363;-83
2022/01/29 08:48:26;;;;;;;14.57;3.60;;;26.90;99.90;;;;;;5103397;28;20711;-83
2022/01/29 08:50:54;;;;;;;13.98;3.50;;;26.80;99.90;;;;;;5098514;28;20373;-83
2022/01/29 08:53:21;;;;;;;14.30;3.30;;;26.80;99.90;;;;;;5095974;28;20384;-84
2022/01/29 08:55:48;;;;;;;16.40;3.60;;;26.70;99.90;;;;;;5114606;28;20375;-84
2022/01/29 08:58:16;;;;;;;16.80;3.70;;;26.70;99.90;;;;;;5102725;28;20459;-83
2022/01/29 09:00:45;;;;;;;17.60;3.90;;;26.60;99.90;;;;;;5094594;28;20367;-85
2022/01/29 09:03:14;;;;;;;16.55;4.15;;;26.50;99.90;;;;;;5093801;28;20412;-82
2022/01/29 09:05:46;;;;;;;18.52;3.60;;;26.40;99.90;;;;;;5093263;28;20376;-85
2022/01/29 09:08:14;;;;;;;15.20;3.88;;;26.40;99.90;;;;;;5093186;28;20457;-82
2022/01/29 09:10:41;;;;;;;17.75;3.92;;;26.30;99.90;;;;;;5093714;28;20369;-83
2022/01/29 09:13:12;;;;;;;17.65;3.60;;;26.30;99.90;;;;;;5087392;28;20390;-84
2022/01/29 09:15:39;;;;;;;19.45;3.72;;;26.20;99.90;;;;;;5073704;28;20860;-84
2022/01/29 09:18:06;;;;;;;14.35;3.45;;;26.10;99.90;;;;;;5079004;28;20400;-80
2022/01/29 09:20:33;;;;;;;18.83;3.83;;;26.10;99.90;;;;;;5084125;28;20382;-83
2022/01/29 09:23:00;;;;;;;17.58;3.65;;;26.10;99.90;;;;;;5073583;28;20407;-84
2022/01/29 09:25:27;;;;;;;17.13;4.00;;;26.10;99.90;;;;;;5073931;28;20452;-83
2022/01/29 09:27:55;;;;;;;19.08;3.90;;;26.10;99.90;;;;;;5075252;28;20394;-83
2022/01/29 09:30:22;;;;;;;17.35;3.97;;;26.00;99.90;;;;;;5078273;28;20900;-82
2022/01/29 09:32:49;;;;;;;18.67;3.80;;;26.00;99.90;;;;;;5093172;28;20384;-81
2022/01/29 09:35:17;;;;;;;14.45;3.75;;;25.90;99.90;;;;;;5085471;28;20819;-83
2022/01/29 09:37:44;;;;;;;17.80;3.90;;;25.90;99.90;;;;;;5081774;28;20392;-83
2022/01/29 09:40:11;;;;;;;14.95;3.60;;;25.80;99.90;;;;;;5082614;28;20380;-82
2022/01/29 09:42:39;;;;;;;17.33;3.95;;;25.80;99.90;;;;;;5092092;28;21846;-82
2022/01/29 09:45:09;;;;;;;16.70;4.20;;;25.70;99.90;;;;;;5083292;28;20491;-82
2022/01/29 09:47:38;;;;;;;19.80;4.17;;;25.70;99.90;;;;;;5093961;28;20510;-83
2022/01/29 09:50:06;;;;;;;15.60;3.97;;;25.70;99.90;;;;;;5093038;28;20777;-82
2022/01/29 09:52:33;;;;;;;15.15;3.28;;;25.70;99.90;;;;;;5095274;28;20697;-83
2022/01/29 09:55:01;;;;;;;14.65;3.20;;;25.60;99.90;;;;;;5094667;28;20368;-82
2022/01/29 09:57:28;;;;;;;16.02;3.42;;;25.60;99.90;;;;;;5093200;28;20383;-83
2022/01/29 09:59:55;;;;;;;15.82;3.55;;;25.60;99.90;;;;;;5093001;28;20422;-83
2022/01/29 10:02:23;;;;;;;17.98;3.47;;;25.50;99.90;;;;;;5085693;28;20409;-84
2022/01/29 10:04:55;;;;;;;17.00;3.95;;;25.50;99.90;;;;;;5092847;28;20380;-83
2022/01/29 10:07:29;;;;;;;15.63;3.50;;;25.50;99.90;;;;;;5093151;28;20419;-84
2022/01/29 10:09:59;;;;;;;16.63;3.45;;;25.50;99.90;;;;;;5092780;28;20369;-85
2022/01/29 10:12:28;;;;;;;14.15;3.33;;;25.50;99.90;;;;;;5092435;28;20380;-84
2022/01/29 10:15:01;;;;;;;15.70;3.40;;;25.50;99.90;;;;;;5103763;28;20867;-84
2022/01/29 10:17:47;;;;;;;18.00;3.55;;;25.50;99.90;;;;;;5092649;28;20419;-83
2022/01/29 10:20:14;;;;;;;15.35;3.38;;;25.10;99.90;;;;;;5092760;28;20874;-85
2022/01/29 10:22:44;;;;;;;14.97;3.70;;;25.40;99.90;;;;;;5093693;28;20400;-83
2022/01/29 10:25:20;;;;;;;16.95;3.70;;;25.50;99.90;;;;;;5092576;28;20376;-84
2022/01/29 10:28:05;;;;;;;13.63;3.40;;;25.50;99.90;;;;;;5092444;28;20388;-84
2022/01/29 10:30:53;;;;;;;14.52;3.45;;;25.40;99.90;;;;;;5092546;28;20372;-82
2022/01/29 10:33:27;;;;;;;16.73;3.30;;;25.40;99.90;;;;;;5092583;28;20418;-83
2022/01/29 10:36:03;;;;;;;14.77;3.33;;;25.40;99.90;;;;;;5091118;28;20486;-83
2022/01/29 10:38:58;;;;;;;15.37;3.30;;;25.40;99.90;;;;;;5092359;28;20368;-85
2022/01/29 10:41:28;;;;;;;16.00;3.30;;;25.40;99.90;;;;;;5092106;28;20924;-82
2022/01/29 10:46:42;;;;;;;16.88;3.42;;;25.30;99.90;;;;;;5092265;28;20387;-82
2022/01/29 10:49:20;;;;;;;15.07;3.20;;;25.30;99.90;;;;;;5092578;28;20384;-83
2022/01/29 10:52:10;;;;;;;17.17;3.20;;;25.30;99.90;;;;;;5091230;28;20475;-82
2022/01/29 10:54:39;;;;;;;13.82;3.28;;;25.30;99.90;;;;;;5092217;28;20475;-84
2022/01/29 10:57:17;;;;;;;16.25;3.20;;;25.20;99.90;;;;;;5090541;28;20732;-82
2022/01/29 10:59:53;;;;;;;14.50;2.92;;;25.20;99.90;;;;;;5092086;28;20395;-83
2022/01/29 11:02:28;;;;;;;15.68;3.33;;;25.20;99.90;;;;;;5092364;28;20756;-82
2022/01/29 11:04:56;;;;;;;16.40;3.58;;;25.20;99.90;;;;;;5091944;28;21240;-82
2022/01/29 11:07:28;;;;;;;12.53;3.00;;;25.20;99.90;;;;;;5092075;28;20381;-83
2022/01/29 11:09:55;;;;;;;16.50;3.30;;;25.10;99.90;;;;;;5091770;28;20380;-83
2022/01/29 11:12:28;;;;;;;15.25;3.17;;;25.10;99.90;;;;;;5091198;28;20763;-83
2022/01/29 11:14:59;;;;;;;14.05;3.30;;;25.00;99.90;;;;;;5091764;28;20364;-85
2022/01/29 11:17:29;;;;;;;19.05;3.30;;;25.00;99.90;;;;;;5091455;28;20467;-82
2022/01/29 11:19:56;;;;;;;17.98;3.47;;;25.00;99.90;;;;;;5091496;28;20369;-82
2022/01/29 11:22:29;;;;;;;13.65;3.08;;;25.00;99.90;;;;;;5091305;28;20485;-83
2022/01/29 11:25:00;;;;;;;14.98;3.80;;;25.00;99.90;;;;;;5089933;28;20388;-84
2022/01/29 11:27:29;;;;;;;17.17;3.80;;;25.00;99.90;;;;;;5091291;28;20712;-84
2022/01/29 11:30:10;;;;;;;17.05;3.28;;;24.90;99.90;;;;;;5091131;28;20882;-84
2022/01/29 11:32:42;;;;;;;14.82;3.30;;;24.80;99.90;;;;;;5087387;28;20379;-84
2022/01/29 11:35:30;;;;;;;16.05;3.13;;;24.80;99.90;;;;;;5111564;28;20367;-83
2022/01/29 11:38:08;;;;;;;15.93;3.22;;;24.70;99.90;;;;;;5111305;28;20387;-83
2022/01/29 11:40:44;;;;;;;14.77;3.25;;;24.80;99.90;;;;;;5071348;28;20378;-82
2022/01/29 11:43:20;;;;;;;17.63;3.30;;;24.80;99.90;;;;;;5078120;28;20439;-83
2022/01/29 11:45:58;;;;;;;16.13;3.10;;;24.80;99.90;;;;;;5091109;28;20375;-83
2022/01/29 11:48:26;;;;;;;14.07;3.22;;;24.70;99.90;;;;;;5090770;28;20969;-85
2022/01/29 11:51:01;;;;;;;16.43;3.57;;;24.60;99.90;;;;;;5091063;28;20380;-81
2022/01/29 11:53:52;;;;;;;18.42;3.65;;;24.60;99.90;;;;;;5091030;28;20795;-82
2022/01/29 11:56:28;;;;;;;14.25;3.33;;;24.60;99.90;;;;;;5084538;28;20368;-82
2022/01/29 11:59:34;;;;;;;16.58;3.10;;;24.50;99.90;;;;;;5090640;28;20388;-83
2022/01/29 12:02:09;;;;;;;17.77;3.25;;;24.50;99.90;;;;;;5090318;28;20461;-82
2022/01/29 12:04:56;;;;;;;15.43;3.38;;;24.50;99.90;;;;;;5090894;28;20923;-83
2022/01/29 12:10:07;;;;;;;15.82;3.15;;;24.50;99.90;;;;;;5090770;28;20879;-82
2022/01/29 12:12:36;;;;;;;16.48;3.13;;;24.50;99.90;;;;;;5090738;28;20375;-85
2022/01/29 12:15:12;;;;;;;17.50;3.17;;;24.40;99.90;;;;;;5090854;28;20871;-83
2022/01/29 12:17:47;;;;;;;16.52;3.53;;;24.40;99.90;;;;;;5090504;28;20452;-82
2022/01/29 12:20:20;;;;;;;13.93;2.85;;;24.30;99.90;;;;;;5090534;28;20450;-81
2022/01/29 12:22:48;;;;;;;17.63;3.30;;;24.40;99.90;;;;;;5090484;28;20745;-84
2022/01/29 12:25:23;;;;;;;17.97;3.37;;;24.30;99.90;;;;;;5094028;28;20373;-85
2022/01/29 12:28:00;;;;;;;14.73;3.00;;;24.30;99.90;;;;;;5094689;28;20400;-83
2022/01/29 12:30:30;;;;;;;18.17;3.08;;;24.30;99.90;;;;;;5094516;28;20397;-82
2022/01/29 12:33:02;;;;;;;14.43;3.10;;;24.40;99.90;;;;;;5105802;28;20936;-82
2022/01/29 12:35:36;;;;;;;12.52;2.83;;;24.30;99.90;;;;;;5104788;28;20502;-84
2022/01/29 12:38:05;;;;;;;16.67;3.40;;;24.30;99.90;;;;;;5094176;28;20425;-84
2022/01/29 12:40:40;;;;;;;15.95;3.15;;;24.30;99.90;;;;;;5094566;28;20425;-84
2022/01/29 12:43:51;;;;;;;16.20;3.25;;;24.30;99.90;;;;;;5093733;28;20427;-82
2022/01/29 12:46:20;;;;;;;15.88;3.10;;;24.20;99.90;;;;;;5094291;28;20419;-84
2022/01/29 12:49:20;;;;;;;17.07;3.33;;;24.20;99.90;;;;;;5094058;28;20446;-83
2022/01/29 12:51:57;;;;;;;13.68;3.05;;;24.20;99.90;;;;;;5038746;28;20392;-83
2022/01/29 12:54:29;;;;;;;12.32;2.95;;;24.20;99.90;;;;;;5094343;28;20444;-82
2022/01/29 12:56:58;;;;;;;15.40;2.90;;;24.20;99.90;;;;;;5094120;28;20767;-84
2022/01/29 12:59:25;;;;;;;14.43;2.73;;;24.20;99.90;;;;;;5093931;28;20372;-81
2022/01/29 13:01:56;;;;;;;12.50;2.72;;;24.20;99.90;;;;;;5093855;28;20487;-82
2022/01/29 13:04:23;;;;;;;13.73;2.55;;;24.20;99.90;;;;;;5093672;28;20649;-81
2022/01/29 13:07:01;;;;;;;14.00;2.90;;;24.20;99.90;;;;;;5094086;28;20434;-84
2022/01/29 13:09:28;;;;;;;12.90;2.70;;;24.20;99.90;;;;;;5065169;28;20396;-84
2022/01/29 13:12:07;;;;;;;13.52;2.90;;;24.20;99.90;;;;;;5053638;28;20424;-84
2022/01/29 13:14:35;;;;;;;12.70;2.63;;;24.10;99.90;;;;;;5053355;28;20364;-83
2022/01/29 13:17:05;;;;;;;12.73;2.60;;;24.20;99.90;;;;;;5053404;28;20372;-82
2022/01/29 13:19:32;;;;;;;15.30;2.67;;;24.10;99.90;;;;;;5091503;28;20380;-82
2022/01/29 13:22:02;;;;;;;14.30;2.85;;;24.10;99.90;;;;;;5073444;28;20912;-83
2022/01/29 13:24:32;;;;;;;12.15;2.53;;;24.10;99.90;;;;;;5056133;28;20809;-82
2022/01/29 13:27:09;;;;;;;16.02;3.10;;;24.10;99.90;;;;;;5073584;28;20382;-83
2022/01/29 13:29:43;;;;;;;13.35;2.67;;;24.10;99.90;;;;;;5069084;28;20378;-83
2022/01/29 13:32:15;;;;;;;12.75;2.53;;;24.10;99.90;;;;;;5073287;28;20453;-83
2022/01/29 13:34:44;;;;;;;12.10;2.72;;;24.10;99.90;;;;;;5081672;28;20485;-83
2022/01/29 13:37:34;;;;;;;13.20;2.88;;;24.10;99.90;;;;;;5072885;28;20389;-82
2022/01/29 13:40:03;;;;;;;12.80;2.80;;;24.10;99.90;;;;;;5073015;28;20789;-83
2022/01/29 13:42:34;;;;;;;14.97;2.90;;;24.10;99.90;;;;;;5074062;28;20402;-83
2022/01/29 13:45:19;;;;;;;12.43;2.80;;;24.00;99.90;;;;;;5054880;28;20780;-83
2022/01/29 13:48:12;;;;;;;12.63;2.70;;;24.00;99.90;;;;;;5072146;28;20397;-84
2022/01/29 13:50:54;;;;;;;13.07;2.75;;;23.90;99.90;;;;;;5073008;28;20516;-83
2022/01/29 13:53:23;;;;;;;13.68;2.95;;;23.90;99.90;;;;;;5072633;28;20381;-83
2022/01/29 13:56:09;;;;;;;11.90;2.80;;;23.90;99.90;;;;;;5072619;28;20397;-83
2022/01/29 13:58:51;;;;;;;13.38;2.80;;;23.90;99.90;;;;;;5072576;28;20370;-83
2022/01/29 14:01:40;;;;;;;14.70;2.83;;;23.80;99.90;;;;;;5068878;28;20405;-83
2022/01/29 14:04:29;;;;;;;13.27;2.80;;;23.80;99.90;;;;;;5072462;28;20413;-84
2022/01/29 14:06:58;;;;;;;13.40;2.78;;;23.80;99.90;;;;;;5072449;28;20408;-83
2022/01/29 14:09:42;;;;;;;14.10;3.00;;;23.80;99.90;;;;;;5091684;28;20796;-83
2022/01/29 14:12:20;;;;;;;14.77;2.90;;;23.80;99.90;;;;;;5092570;28;20418;-83
2022/01/29 14:14:49;;;;;;;11.70;3.00;;;23.70;99.90;;;;;;5092128;28;20724;-82
2022/01/29 14:17:23;;;;;;;12.10;2.67;;;23.70;99.90;;;;;;5092116;28;20388;-83
2022/01/29 14:19:59;;;;;;;13.30;2.80;;;23.70;99.90;;;;;;5092331;28;20383;-84
2022/01/29 14:22:31;;;;;;;18.85;3.17;;;23.70;99.90;;;;;;5092288;28;20453;-83
2022/01/29 14:25:00;;;;;;;13.18;2.63;;;23.70;99.90;;;;;;5094015;28;20790;-83
2022/01/29 14:27:28;;;;;;;14.43;3.03;;;23.70;99.90;;;;;;5093775;28;20448;-83
2022/01/29 14:29:56;;;;;;;14.30;2.67;;;23.60;99.90;;;;;;5094093;28;20379;-82
2022/01/29 14:32:24;;;;;;;13.63;2.90;;;23.60;99.90;;;;;;5093908;28;20376;-83
2022/01/29 14:34:52;;;;;;;12.18;2.50;;;23.60;99.90;;;;;;5094033;28;20379;-84
2022/01/29 14:37:19;;;;;;;14.20;3.03;;;23.60;99.90;;;;;;5093687;28;20365;-83
2022/01/29 14:39:47;;;;;;;14.10;2.70;;;23.50;99.90;;;;;;5093739;28;20385;-84
2022/01/29 14:42:23;;;;;;;16.90;3.10;;;23.50;99.90;;;;;;5092478;28;20836;-82
2022/01/29 14:44:52;;;;;;;13.02;2.80;;;23.50;99.90;;;;;;5094202;28;20369;-83
2022/01/29 14:47:20;;;;;;;13.00;3.03;;;23.50;99.90;;;;;;5092771;28;20368;-82
2022/01/29 14:49:48;;;;;;;15.63;3.08;;;23.50;99.90;;;;;;5093603;28;20452;-83
2022/01/29 14:52:16;;;;;;;15.85;3.25;;;23.50;99.90;;;;;;5093982;28;20790;-83
2022/01/29 14:54:44;;;;;;;14.45;2.95;;;23.50;99.90;;;;;;5093370;28;20373;-83
2022/01/29 14:57:11;;;;;;;16.33;3.20;;;23.50;99.90;;;;;;5093387;28;20387;-85
2022/01/29 14:59:38;;;;;;;12.87;2.90;;;23.40;99.90;;;;;;5093419;28;20360;-80
2022/01/29 15:02:05;;;;;;;14.87;2.97;;;23.30;99.90;;;;;;5091700;28;20603;-81
2022/01/29 15:04:33;;;;;;;15.02;2.80;;;23.30;99.90;;;;;;5093213;28;20396;-83
2022/01/29 15:07:00;;;;;;;13.60;3.00;;;23.30;99.90;;;;;;5093061;28;20423;-83
2022/01/29 15:09:27;;;;;;;16.98;3.00;;;23.20;99.90;;;;;;5093046;28;20433;-83
2022/01/29 15:11:54;;;;;;;12.32;2.50;;;23.20;99.90;;;;;;5093001;28;20859;-84
2022/01/29 15:14:21;;;;;;;17.23;3.15;;;23.20;99.90;;;;;;5092866;28;20379;-81
2022/01/29 15:16:49;;;;;;;12.52;2.80;;;23.10;99.90;;;;;;5093081;28;20372;-81
2022/01/29 15:19:16;;;;;;;12.20;2.80;;;23.10;99.90;;;;;;5092907;28;20372;-81
2022/01/29 15:21:43;;;;;;;12.02;2.70;;;23.10;99.90;;;;;;5092860;28;20402;-82
2022/01/29 15:24:10;;;;;;;15.30;3.00;;;23.10;99.90;;;;;;5092916;28;20391;-82
2022/01/29 15:26:37;;;;;;;14.57;2.73;;;23.10;99.90;;;;;;5092805;28;20364;-81
2022/01/29 15:29:06;;;;;;;13.67;2.70;;;23.00;99.90;;;;;;5092710;28;20380;-83
2022/01/29 15:31:34;;;;;;;13.10;2.78;;;23.00;99.90;;;;;;5092637;28;20422;-81
2022/01/29 15:34:03;;;;;;;17.30;2.97;;;23.00;99.90;;;;;;5092772;28;20400;-81
2022/01/29 15:36:30;;;;;;;12.38;3.00;;;23.00;99.90;;;;;;5092656;28;20864;-81
2022/01/29 15:38:57;;;;;;;13.98;2.90;;;23.00;99.90;;;;;;5092652;28;20447;-81
2022/01/29 15:41:24;;;;;;;14.00;2.63;;;22.90;99.90;;;;;;5092586;28;20372;-82
2022/01/29 15:43:51;;;;;;;17.00;3.05;;;22.90;99.90;;;;;;5092473;28;20471;-82
2022/01/29 15:46:20;;;;;;;14.88;3.00;;;22.90;99.90;;;;;;5092452;28;20399;-82
2022/01/29 15:48:47;;;;;;;15.38;3.10;;;22.90;99.90;;;;;;5092470;28;20368;-82
2022/01/29 15:51:15;;;;;;;13.85;2.90;;;22.90;99.90;;;;;;5092502;28;20414;-82
2022/01/29 15:53:42;;;;;;;14.18;2.80;;;22.80;99.90;;;;;;5092337;28;20414;-82
2022/01/29 15:56:10;;;;;;;14.60;2.80;;;22.80;99.90;;;;;;5091132;28;20447;-81
2022/01/29 15:58:37;;;;;;;14.32;2.90;;;22.80;99.90;;;;;;5092160;28;20423;-83
2022/01/29 16:01:04;;;;;;;17.40;3.10;;;22.80;99.90;;;;;;5092235;28;20424;-81
2022/01/29 16:03:31;;;;;;;12.20;2.80;;;22.80;99.90;;;;;;5091814;28;20985;-81
2022/01/29 16:05:58;;;;;;;13.05;2.85;;;22.80;99.90;;;;;;5092131;28;20390;-82
2022/01/29 16:08:25;;;;;;;15.35;2.90;;;22.80;99.90;;;;;;5092289;28;20891;-82
2022/01/29 16:10:55;;;;;;;15.57;2.70;;;22.80;99.90;;;;;;5092240;28;20369;-83
2022/01/29 16:13:23;;;;;;;14.55;2.88;;;22.80;99.90;;;;;;5092323;28;20890;-82
2022/01/29 16:15:51;;;;;;;16.27;3.28;;;22.90;99.90;;;;;;5090949;28;20377;-81
2022/01/29 16:18:18;;;;;;;14.38;2.92;;;22.80;99.90;;;;;;5094051;28;20373;-83
2022/01/29 16:20:46;;;;;;;14.07;2.60;;;22.90;99.90;;;;;;5093715;28;20396;-82
2022/01/29 16:23:13;;;;;;;13.48;2.80;;;22.90;99.90;;;;;;5092191;28;20786;-83
2022/01/29 16:25:42;;;;;;;15.32;3.10;;;22.90;99.90;;;;;;5092043;28;20883;-84